Petrolia, Texas
Current Conditions -  °F | °C
As of 3:52 AM on Sunday 21 Dec 2014 (Local Time) from KSPS Reporting Station
Overcast Overcast  
Wind Chill: 38°   Ceiling: 4900
Heat Index: 43°   Visibility: 10mi
Dew Point: 39°   Wind: 8mph
Humidity: 86%   Direction: 140°SE
Pressure: 30.07"   Gusts: NA
Location:  34.01°N, 98.23°W
Report Text: KSPS 210952Z AUTO 14007KT 10SM OVC049 06/04 A3007 RMK AO2 SLP183 T00610039 TSNO
Loading
Personal Weather Stations






























Interactive Weather Map New forecast layout! Learn more

10-Day Weather Forecast

Advertisements
Track Severe Weather on mobile